createdAt,value
2023-04-03T00:00:03.029Z,0.86
2023-04-03T00:02:29.685Z,0.86
2023-04-03T00:04:56.296Z,0.88
2023-04-03T00:07:22.831Z,0.88
2023-04-03T00:09:49.419Z,0.88
2023-04-03T00:12:15.903Z,0.83
2023-04-03T00:14:42.425Z,0.82
2023-04-03T00:17:08.995Z,0.81
2023-04-03T00:19:35.517Z,0.80
2023-04-03T00:22:02.067Z,0.81
2023-04-03T00:24:28.600Z,0.80
2023-04-03T00:26:55.092Z,0.81
2023-04-03T00:29:21.600Z,0.81
2023-04-03T00:31:48.168Z,0.74
2023-04-03T00:34:14.666Z,0.70
2023-04-03T00:36:41.289Z,0.66
2023-04-03T00:39:07.921Z,0.66
2023-04-03T00:41:34.444Z,0.65
2023-04-03T00:44:00.961Z,0.66
2023-04-03T00:46:27.505Z,0.64
2023-04-03T00:48:54.082Z,0.64
2023-04-03T00:51:26.331Z,0.62
2023-04-03T00:53:57.965Z,0.60
2023-04-03T00:56:25.108Z,0.58
2023-04-03T00:58:53.158Z,0.58
2023-04-03T01:01:22.010Z,0.56
2023-04-03T01:03:48.545Z,0.56
2023-04-03T01:06:15.340Z,0.55
2023-04-03T01:08:41.831Z,0.54
2023-04-03T01:11:08.343Z,0.54
2023-04-03T01:13:35.003Z,0.53
2023-04-03T01:16:02.941Z,0.53
2023-04-03T01:18:29.494Z,0.50
2023-04-03T01:21:14.286Z,0.51
2023-04-03T01:24:02.457Z,0.47
2023-04-03T01:26:29.004Z,0.46
2023-04-03T01:28:55.609Z,0.45
2023-04-03T01:31:48.148Z,0.43
2023-04-03T01:34:14.758Z,0.42
2023-04-03T01:36:41.346Z,0.38
2023-04-03T01:39:07.942Z,0.38
2023-04-03T01:41:34.545Z,0.36
2023-04-03T01:44:01.105Z,0.37
2023-04-03T01:46:27.666Z,0.34
2023-04-03T01:48:54.212Z,0.35
2023-04-03T01:51:20.714Z,0.31
2023-04-03T01:53:47.288Z,0.31
2023-04-03T01:56:13.788Z,0.32
2023-04-03T01:58:40.289Z,0.33
2023-04-03T02:01:06.881Z,0.30
2023-04-03T02:03:33.506Z,0.29
2023-04-03T02:06:00.123Z,0.29
2023-04-03T02:08:26.688Z,0.28
2023-04-03T02:10:53.173Z,0.27
2023-04-03T02:13:19.790Z,0.25
2023-04-03T02:15:46.484Z,0.21
2023-04-03T02:18:13.029Z,0.18
2023-04-03T02:20:39.784Z,0.16
2023-04-03T02:23:06.579Z,0.16
2023-04-03T02:25:33.290Z,0.16
2023-04-03T02:27:59.823Z,0.13
2023-04-03T02:30:26.409Z,0.17
2023-04-03T02:32:53.080Z,0.15
2023-04-03T02:35:19.855Z,0.16
2023-04-03T02:37:46.413Z,0.15
2023-04-03T02:40:12.925Z,0.13
2023-04-03T02:42:39.416Z,0.12
2023-04-03T02:45:06.540Z,0.09
2023-04-03T02:47:33.088Z,0.11
2023-04-03T02:49:59.682Z,0.07
2023-04-03T02:52:26.246Z,0.05
2023-04-03T02:54:52.808Z,0.03
2023-04-03T02:57:19.343Z,0.02
2023-04-03T02:59:45.893Z,-0.03
2023-04-03T03:02:12.380Z,-0.06
2023-04-03T03:04:38.990Z,-0.08
2023-04-03T03:07:05.611Z,-0.07
2023-04-03T03:09:32.155Z,-0.10
2023-04-03T03:11:58.667Z,-0.11
2023-04-03T03:14:25.232Z,-0.14
2023-04-03T03:16:51.745Z,-0.13
2023-04-03T03:19:18.276Z,-0.15
2023-04-03T03:21:44.769Z,-0.18
2023-04-03T03:24:11.283Z,-0.17
2023-04-03T03:26:37.779Z,-0.19
2023-04-03T03:29:04.335Z,-0.17
2023-04-03T03:31:30.888Z,-0.20
2023-04-03T03:33:57.444Z,-0.23
2023-04-03T03:36:24.008Z,-0.21
2023-04-03T03:38:50.563Z,-0.21
2023-04-03T03:41:17.096Z,-0.23
2023-04-03T03:43:43.701Z,-0.24
2023-04-03T03:46:10.204Z,-0.26
2023-04-03T03:48:36.755Z,-0.27
2023-04-03T03:51:03.303Z,-0.27
2023-04-03T03:53:29.839Z,-0.30
2023-04-03T03:55:56.365Z,-0.31
2023-04-03T03:58:22.864Z,-0.29
2023-04-03T04:00:49.405Z,-0.31
2023-04-03T04:03:16.087Z,-0.31
2023-04-03T04:05:42.736Z,-0.30
2023-04-03T04:08:09.240Z,-0.31
2023-04-03T04:10:35.758Z,-0.33
2023-04-03T04:13:02.348Z,-0.33
2023-04-03T04:15:28.840Z,-0.34
2023-04-03T04:17:55.361Z,-0.33
2023-04-03T04:20:21.939Z,-0.35
2023-04-03T04:22:48.442Z,-0.36
2023-04-03T04:25:14.952Z,-0.39
2023-04-03T04:27:41.520Z,-0.40
2023-04-03T04:30:08.465Z,-0.42
2023-04-03T04:32:35.025Z,-0.40
2023-04-03T04:35:01.546Z,-0.42
2023-04-03T04:37:28.155Z,-0.39
2023-04-03T04:39:54.635Z,-0.42
2023-04-03T04:42:21.201Z,-0.42
2023-04-03T04:44:47.711Z,-0.43
2023-04-03T04:47:14.221Z,-0.47
2023-04-03T04:49:40.753Z,-0.47
2023-04-03T04:52:07.265Z,-0.47
2023-04-03T04:54:33.796Z,-0.45
2023-04-03T04:57:00.374Z,-0.45
2023-04-03T04:59:26.916Z,-0.47
2023-04-03T05:01:53.495Z,-0.45
2023-04-03T05:04:20.311Z,-0.44
2023-04-03T05:06:46.978Z,-0.44
2023-04-03T05:09:13.668Z,-0.44
2023-04-03T05:11:40.155Z,-0.42
2023-04-03T05:14:06.713Z,-0.39
2023-04-03T05:16:34.111Z,-0.34
2023-04-03T05:19:00.640Z,-0.29
2023-04-03T05:21:27.242Z,-0.26
2023-04-03T05:23:53.764Z,-0.25
2023-04-03T05:26:20.421Z,-0.22
2023-04-03T05:28:46.976Z,-0.16
2023-04-03T05:31:13.933Z,-0.13
2023-04-03T05:33:40.620Z,-0.12
2023-04-03T05:36:07.620Z,-0.05
2023-04-03T05:38:34.744Z,-0.01
2023-04-03T05:41:01.433Z,0.05
2023-04-03T05:43:27.999Z,0.08
2023-04-03T05:45:54.562Z,0.14
2023-04-03T05:48:21.295Z,0.18
2023-04-03T05:50:48.020Z,0.22
2023-04-03T05:53:18.802Z,0.27
2023-04-03T05:55:45.326Z,0.30
2023-04-03T05:58:11.935Z,0.35
2023-04-03T06:00:38.572Z,0.41
2023-04-03T06:03:05.198Z,0.46
2023-04-03T06:05:31.840Z,0.49
2023-04-03T06:07:58.360Z,0.56
2023-04-03T06:10:24.943Z,0.62
2023-04-03T06:12:51.823Z,0.66
2023-04-03T06:15:18.373Z,0.72
2023-04-03T06:17:44.953Z,0.79
2023-04-03T06:20:12.168Z,0.83
2023-04-03T06:22:38.851Z,0.82
2023-04-03T06:25:05.988Z,0.90
2023-04-03T06:27:32.520Z,0.94
2023-04-03T06:29:59.077Z,1.02
2023-04-03T06:32:25.849Z,1.09
2023-04-03T06:34:52.538Z,1.12
2023-04-03T06:37:20.853Z,1.17
2023-04-03T06:39:47.734Z,1.29
2023-04-03T06:42:14.308Z,1.36
2023-04-03T06:44:40.883Z,1.39
2023-04-03T06:47:07.430Z,1.43
2023-04-03T06:49:34.066Z,1.49
2023-04-03T06:52:02.386Z,1.54
2023-04-03T06:54:29.262Z,1.62
2023-04-03T06:56:55.790Z,1.71
2023-04-03T06:59:22.407Z,1.80
2023-04-03T07:01:48.969Z,1.86
2023-04-03T07:04:16.014Z,1.95
2023-04-03T07:06:42.659Z,2.04
2023-04-03T07:09:10.116Z,2.11
2023-04-03T07:11:36.721Z,2.26
2023-04-03T07:14:03.625Z,2.33
2023-04-03T07:16:30.230Z,2.50
2023-04-03T07:18:56.933Z,2.58
2023-04-03T07:21:23.637Z,2.69
2023-04-03T07:23:50.180Z,2.78
2023-04-03T07:26:16.738Z,2.97
2023-04-03T07:28:43.315Z,3.02
2023-04-03T07:31:12.525Z,3.08
2023-04-03T07:33:39.244Z,3.24
2023-04-03T07:36:06.120Z,3.30
2023-04-03T07:38:32.613Z,3.33
2023-04-03T07:40:59.611Z,3.40
2023-04-03T07:43:26.362Z,3.45
2023-04-03T07:45:52.976Z,3.57
2023-04-03T07:48:24.975Z,3.73
2023-04-03T07:50:51.677Z,3.82
2023-04-03T07:53:18.266Z,3.90
2023-04-03T07:55:47.620Z,3.95
2023-04-03T07:58:15.911Z,3.98
2023-04-03T08:00:42.515Z,4.10
2023-04-03T08:03:11.378Z,4.22
2023-04-03T08:05:40.589Z,4.31
2023-04-03T08:08:07.262Z,4.43
2023-04-03T08:10:33.871Z,4.50
2023-04-03T08:13:00.730Z,4.67
2023-04-03T08:15:27.250Z,4.77
2023-04-03T08:17:54.265Z,4.87
2023-04-03T08:20:20.992Z,5.00
2023-04-03T08:22:47.541Z,5.10
2023-04-03T08:25:14.575Z,5.21
2023-04-03T08:27:41.083Z,5.30
2023-04-03T08:30:08.404Z,5.42
2023-04-03T08:32:35.105Z,5.56
2023-04-03T08:35:01.706Z,5.77
2023-04-03T08:37:28.263Z,5.93
2023-04-03T08:39:54.860Z,5.97
2023-04-03T08:42:46.306Z,6.03
2023-04-03T08:45:15.829Z,6.06
2023-04-03T08:47:49.726Z,6.20
2023-04-03T08:50:22.481Z,6.29
2023-04-03T08:52:50.595Z,6.39
2023-04-03T08:55:21.811Z,6.17
2023-04-03T08:57:48.321Z,6.00
2023-04-03T09:00:14.885Z,6.03
2023-04-03T09:02:44.135Z,6.10
2023-04-03T09:05:14.147Z,6.15
2023-04-03T09:07:52.025Z,6.05
2023-04-03T09:10:29.099Z,6.13
2023-04-03T09:13:02.557Z,6.39
2023-04-03T09:15:38.590Z,6.68
2023-04-03T09:18:13.403Z,6.84
2023-04-03T09:20:45.563Z,7.03
2023-04-03T09:23:16.489Z,6.89
2023-04-03T09:25:43.027Z,6.54
2023-04-03T09:28:09.615Z,6.16
2023-04-03T09:30:36.607Z,6.04
2023-04-03T09:33:03.370Z,6.08
2023-04-03T09:35:44.903Z,6.31
2023-04-03T09:38:14.316Z,6.71
2023-04-03T09:40:44.582Z,6.89
2023-04-03T09:43:21.223Z,7.03
2023-04-03T09:45:48.476Z,7.16
2023-04-03T09:48:16.512Z,6.93
2023-04-03T09:50:51.996Z,6.63
2023-04-03T09:53:42.066Z,6.68
2023-04-03T09:56:14.486Z,6.64
2023-04-03T09:58:49.881Z,6.65
2023-04-03T10:01:23.925Z,6.87
2023-04-03T10:04:06.120Z,7.15
2023-04-03T10:06:33.990Z,7.23
2023-04-03T10:09:01.977Z,7.46
2023-04-03T10:11:28.598Z,7.54
2023-04-03T10:13:59.594Z,7.74
2023-04-03T10:16:28.577Z,7.95
2023-04-03T10:19:02.366Z,8.11
2023-04-03T10:21:43.069Z,8.26
2023-04-03T10:24:20.325Z,8.30
2023-04-03T10:26:59.152Z,8.24
2023-04-03T10:29:41.856Z,8.38
2023-04-03T10:32:21.738Z,8.45
2023-04-03T10:34:58.600Z,8.42
2023-04-03T10:37:35.663Z,8.49
2023-04-03T10:40:25.691Z,8.55
2023-04-03T10:43:11.142Z,8.60
2023-04-03T10:46:03.444Z,8.62
2023-04-03T10:48:42.657Z,8.70
2023-04-03T10:51:37.088Z,8.77
2023-04-03T10:54:12.266Z,8.93
2023-04-03T10:56:44.078Z,9.01
2023-04-03T10:59:35.560Z,9.08
2023-04-03T11:02:25.318Z,9.18
2023-04-03T11:04:58.561Z,9.36
2023-04-03T11:07:31.158Z,9.46
2023-04-03T11:10:01.569Z,9.52
2023-04-03T11:12:34.681Z,9.56
2023-04-03T11:15:01.231Z,9.56
2023-04-03T11:18:11.851Z,9.50
2023-04-03T11:20:38.631Z,9.10
2023-04-03T11:23:11.798Z,8.92
2023-04-03T11:25:38.595Z,8.97
2023-04-03T11:28:07.216Z,9.25
2023-04-03T11:30:54.977Z,9.67
2023-04-03T11:33:32.830Z,10.00
2023-04-03T11:36:19.056Z,10.02
2023-04-03T11:38:54.777Z,10.03
2023-04-03T11:41:34.327Z,10.29
2023-04-03T11:44:29.534Z,10.54
2023-04-03T11:46:59.760Z,10.80
2023-04-03T11:49:58.336Z,10.85
2023-04-03T11:52:45.091Z,10.97
2023-04-03T11:55:20.445Z,11.20
2023-04-03T11:58:02.910Z,11.32
2023-04-03T12:00:44.435Z,11.64
2023-04-03T12:03:26.165Z,11.47
2023-04-03T12:05:56.865Z,10.87
2023-04-03T12:08:31.085Z,10.33
2023-04-03T12:11:09.742Z,9.92
2023-04-03T12:14:02.391Z,9.56
2023-04-03T12:16:42.561Z,9.50
2023-04-03T12:19:15.158Z,9.39
2023-04-03T12:21:47.428Z,9.34
2023-04-03T12:24:16.800Z,9.20
2023-04-03T12:26:58.463Z,9.17
2023-04-03T12:29:34.864Z,8.99
2023-04-03T12:32:13.235Z,8.93
2023-04-03T12:34:45.393Z,8.78
2023-04-03T12:37:40.642Z,8.67
2023-04-03T12:40:47.029Z,8.59
2023-04-03T12:43:21.718Z,8.62
2023-04-03T12:46:19.364Z,8.59
2023-04-03T12:48:45.781Z,8.73
2023-04-03T12:51:16.548Z,8.97
2023-04-03T12:53:43.066Z,8.94
2023-04-03T12:56:30.395Z,9.26
2023-04-03T12:59:18.202Z,9.76
2023-04-03T13:01:45.127Z,10.09
2023-04-03T13:04:12.716Z,10.36
2023-04-03T13:06:43.542Z,10.70
2023-04-03T13:09:30.346Z,11.04
2023-04-03T13:12:05.072Z,11.26
2023-04-03T13:14:31.609Z,11.40
2023-04-03T13:16:59.637Z,11.75
2023-04-03T13:19:28.398Z,11.91
2023-04-03T13:22:02.347Z,12.03
2023-04-03T13:24:30.125Z,12.19
2023-04-03T13:26:56.692Z,12.09
2023-04-03T13:29:32.210Z,11.89
2023-04-03T13:31:59.546Z,12.30
2023-04-03T13:34:27.546Z,12.58
2023-04-03T13:36:53.989Z,13.52
2023-04-03T13:39:25.945Z,14.53
2023-04-03T13:41:53.800Z,15.86
2023-04-03T13:44:23.321Z,16.68
2023-04-03T13:46:51.206Z,17.82
2023-04-03T13:49:28.208Z,19.32
2023-04-03T13:52:06.647Z,19.08
2023-04-03T13:54:36.996Z,19.85
2023-04-03T13:57:03.887Z,20.42
2023-04-03T13:59:35.014Z,21.73
2023-04-03T14:02:04.224Z,21.94
2023-04-03T14:04:46.120Z,18.15
2023-04-03T14:07:13.051Z,20.49
2023-04-03T14:09:39.607Z,21.47
2023-04-03T14:12:24.247Z,22.46
2023-04-03T14:14:57.057Z,21.68
2023-04-03T14:17:25.699Z,17.24
2023-04-03T14:19:52.460Z,16.60
2023-04-03T14:22:21.212Z,17.50
2023-04-03T14:24:47.754Z,17.43
2023-04-03T14:27:18.021Z,17.11
2023-04-03T14:29:44.578Z,17.08
2023-04-03T14:32:15.298Z,17.73
2023-04-03T14:34:41.975Z,19.43
2023-04-03T14:37:13.305Z,18.72
2023-04-03T14:39:39.958Z,16.76
2023-04-03T14:42:06.640Z,16.06
2023-04-03T14:44:33.156Z,14.66
2023-04-03T14:46:59.698Z,15.02
2023-04-03T14:49:27.750Z,14.94
2023-04-03T14:51:54.297Z,15.59
2023-04-03T14:54:21.888Z,16.11
2023-04-03T14:56:48.403Z,15.97
2023-04-03T14:59:15.054Z,17.42
2023-04-03T15:01:41.602Z,18.16
2023-04-03T15:04:15.213Z,17.58
2023-04-03T15:06:41.886Z,16.46
2023-04-03T15:09:27.341Z,16.75
2023-04-03T15:11:54.597Z,16.34
2023-04-03T15:14:35.333Z,16.38
2023-04-03T15:17:05.577Z,14.09
2023-04-03T15:19:37.341Z,12.26
2023-04-03T15:22:03.886Z,11.34
2023-04-03T15:24:30.444Z,14.33
2023-04-03T15:26:56.960Z,13.76
2023-04-03T15:29:23.500Z,13.35
2023-04-03T15:31:50.055Z,12.30
2023-04-03T15:34:16.990Z,10.89
2023-04-03T15:36:43.564Z,9.96
2023-04-03T15:39:10.103Z,9.97
2023-04-03T15:41:36.648Z,11.61
2023-04-03T15:44:03.201Z,13.77
2023-04-03T15:46:29.831Z,13.72
2023-04-03T15:48:56.413Z,12.80
2023-04-03T15:51:22.952Z,14.30
2023-04-03T15:53:49.456Z,14.39
2023-04-03T15:56:16.001Z,14.90
2023-04-03T15:58:42.552Z,13.54
2023-04-03T16:01:10.790Z,11.64
2023-04-03T16:03:37.406Z,10.40
2023-04-03T16:06:04.164Z,9.58
2023-04-03T16:08:30.661Z,8.91
2023-04-03T16:10:57.175Z,8.49
2023-04-03T16:13:23.737Z,8.49
2023-04-03T16:15:50.317Z,9.83
2023-04-03T16:18:18.051Z,11.02
2023-04-03T16:20:44.589Z,12.26
2023-04-03T16:23:11.170Z,12.30
2023-04-03T16:25:38.031Z,11.59
2023-04-03T16:28:04.868Z,10.85
2023-04-03T16:30:31.464Z,10.15
2023-04-03T16:32:58.228Z,9.69
2023-04-03T16:35:24.729Z,9.37
2023-04-03T16:37:51.328Z,9.10
2023-04-03T16:40:17.978Z,8.87
2023-04-03T16:42:44.536Z,8.61
2023-04-03T16:45:11.202Z,8.27
2023-04-03T16:47:37.718Z,8.05
2023-04-03T16:50:04.690Z,7.68
2023-04-03T16:52:31.280Z,7.40
2023-04-03T16:54:57.791Z,7.15
2023-04-03T16:57:24.392Z,6.94
2023-04-03T16:59:51.022Z,6.83
2023-04-03T17:02:17.913Z,6.73
2023-04-03T17:04:44.437Z,6.83
2023-04-03T17:07:10.964Z,6.69
2023-04-03T17:09:37.476Z,6.54
2023-04-03T17:12:04.058Z,6.46
2023-04-03T17:14:30.578Z,6.29
2023-04-03T17:16:57.212Z,6.23
2023-04-03T17:19:23.855Z,6.22
2023-04-03T17:21:50.370Z,6.20
2023-04-03T17:24:16.893Z,6.21
2023-04-03T17:26:43.509Z,6.10
2023-04-03T17:29:10.039Z,6.00
2023-04-03T17:31:36.688Z,5.90
2023-04-03T17:34:03.644Z,5.92
2023-04-03T17:36:31.126Z,5.76
2023-04-03T17:38:57.676Z,5.73
2023-04-03T17:41:24.158Z,5.68
2023-04-03T17:43:50.808Z,5.61
2023-04-03T17:46:17.381Z,5.55
2023-04-03T17:48:44.030Z,5.50
2023-04-03T17:51:14.153Z,5.40
2023-04-03T17:53:41.161Z,5.37
2023-04-03T17:56:18.087Z,5.35
2023-04-03T17:58:44.644Z,5.38
2023-04-03T18:01:30.363Z,5.33
2023-04-03T18:03:58.521Z,5.18
2023-04-03T18:06:27.749Z,5.16
2023-04-03T18:09:16.927Z,5.11
2023-04-03T18:11:44.507Z,5.03
2023-04-03T18:14:11.108Z,4.98
2023-04-03T18:16:37.706Z,4.92
2023-04-03T18:19:21.194Z,4.83
2023-04-03T18:21:49.028Z,4.76
2023-04-03T18:24:16.994Z,4.75
2023-04-03T18:26:44.423Z,4.70
2023-04-03T18:29:11.141Z,4.61
2023-04-03T18:31:37.891Z,4.57
2023-04-03T18:34:04.433Z,4.44
2023-04-03T18:36:31.027Z,4.35
2023-04-03T18:38:57.560Z,4.37
2023-04-03T18:41:27.212Z,4.32
2023-04-03T18:43:55.022Z,4.31
2023-04-03T18:46:21.639Z,4.28
2023-04-03T18:48:48.166Z,4.24
2023-04-03T18:51:14.780Z,4.28
2023-04-03T18:53:41.256Z,4.20
2023-04-03T18:56:07.895Z,4.20
2023-04-03T18:58:34.492Z,4.15
2023-04-03T19:01:02.022Z,4.10
2023-04-03T19:03:28.694Z,4.03
2023-04-03T19:05:56.043Z,4.02
2023-04-03T19:08:22.938Z,3.98
2023-04-03T19:10:49.459Z,3.91
2023-04-03T19:13:16.105Z,3.90
2023-04-03T19:15:42.685Z,3.85
2023-04-03T19:18:09.225Z,3.91
2023-04-03T19:20:35.797Z,3.84
2023-04-03T19:23:02.330Z,3.70
2023-04-03T19:25:28.872Z,3.62
2023-04-03T19:27:55.473Z,3.58
2023-04-03T19:30:22.467Z,3.51
2023-04-03T19:32:49.073Z,3.44
2023-04-03T19:35:15.681Z,3.36
2023-04-03T19:37:42.215Z,3.42
2023-04-03T19:40:09.144Z,3.42
2023-04-03T19:42:35.675Z,3.42
2023-04-03T19:45:02.236Z,3.46
2023-04-03T19:47:28.836Z,3.44
2023-04-03T19:49:55.377Z,3.45
2023-04-03T19:52:21.867Z,3.45
2023-04-03T19:54:48.931Z,3.42
2023-04-03T19:57:16.535Z,3.42
2023-04-03T19:59:43.129Z,3.40
2023-04-03T20:02:10.366Z,3.28
2023-04-03T20:04:37.067Z,3.28
2023-04-03T20:07:03.629Z,3.28
2023-04-03T20:09:30.176Z,3.23
2023-04-03T20:11:56.765Z,3.15
2023-04-03T20:14:23.739Z,3.09
2023-04-03T20:16:50.295Z,3.09
2023-04-03T20:19:16.886Z,3.05
2023-04-03T20:21:43.427Z,3.00
2023-04-03T20:24:12.305Z,2.96
2023-04-03T20:26:40.033Z,2.99
2023-04-03T20:29:06.580Z,3.01
2023-04-03T20:31:33.171Z,2.94
2023-04-03T20:33:59.745Z,2.91
2023-04-03T20:36:26.402Z,2.97
2023-04-03T20:38:53.079Z,2.93
2023-04-03T20:41:19.640Z,2.94
2023-04-03T20:43:46.151Z,2.84
2023-04-03T20:46:12.756Z,2.79
2023-04-03T20:48:39.333Z,2.72
2023-04-03T20:51:10.280Z,2.71
2023-04-03T20:53:36.836Z,2.66
2023-04-03T20:56:03.418Z,2.62
2023-04-03T20:58:30.014Z,2.61
2023-04-03T21:00:57.078Z,2.52
2023-04-03T21:03:23.999Z,2.45
2023-04-03T21:05:54.968Z,2.40
2023-04-03T21:08:59.006Z,2.36
2023-04-03T21:12:02.748Z,2.35
2023-04-03T21:15:06.651Z,2.38
2023-04-03T21:17:33.092Z,2.35
2023-04-03T21:19:59.634Z,2.28
2023-04-03T21:22:26.152Z,2.22
2023-04-03T21:24:52.759Z,2.20
2023-04-03T21:27:19.302Z,2.15
2023-04-03T21:29:45.842Z,2.17
2023-04-03T21:32:12.417Z,2.17
2023-04-03T21:34:38.914Z,2.15
2023-04-03T21:37:07.077Z,2.14
2023-04-03T21:39:33.692Z,2.14
2023-04-03T21:42:00.321Z,2.15
2023-04-03T21:44:26.891Z,2.13
2023-04-03T21:46:53.417Z,2.12
2023-04-03T21:49:24.264Z,2.08
2023-04-03T21:51:50.903Z,2.02
2023-04-03T21:54:17.712Z,1.97
2023-04-03T21:56:44.233Z,1.99
2023-04-03T21:59:10.853Z,2.00
2023-04-03T22:01:37.494Z,1.99
2023-04-03T22:04:04.020Z,1.98
2023-04-03T22:06:30.542Z,1.95
2023-04-03T22:08:57.086Z,1.91
2023-04-03T22:11:23.788Z,1.87
2023-04-03T22:13:53.932Z,1.81
2023-04-03T22:16:20.539Z,1.76
2023-04-03T22:18:47.124Z,1.71
2023-04-03T22:21:13.620Z,1.62
2023-04-03T22:23:40.136Z,1.62
2023-04-03T22:26:10.654Z,1.60
2023-04-03T22:28:38.454Z,1.59
2023-04-03T22:31:05.285Z,1.59
2023-04-03T22:33:31.850Z,1.57
2023-04-03T22:35:58.369Z,1.56
2023-04-03T22:38:24.993Z,1.53
2023-04-03T22:41:18.020Z,1.47
2023-04-03T22:43:44.533Z,1.44
2023-04-03T22:46:11.104Z,1.40
2023-04-03T22:48:37.758Z,1.37
2023-04-03T22:51:05.360Z,1.35
2023-04-03T22:53:31.908Z,1.30
2023-04-03T22:55:59.097Z,1.28
2023-04-03T22:58:25.953Z,1.24
2023-04-03T23:00:54.040Z,1.22
2023-04-03T23:03:21.096Z,1.21
2023-04-03T23:05:47.653Z,1.20
2023-04-03T23:08:14.167Z,1.16
2023-04-03T23:10:41.476Z,1.15
2023-04-03T23:13:08.047Z,1.11
2023-04-03T23:15:34.538Z,1.05
2023-04-03T23:18:01.170Z,1.02
2023-04-03T23:20:27.746Z,1.01
2023-04-03T23:22:54.378Z,0.98
2023-04-03T23:25:20.888Z,0.97
2023-04-03T23:27:51.231Z,0.97
2023-04-03T23:30:17.751Z,0.96
2023-04-03T23:32:44.363Z,0.93
2023-04-03T23:35:10.891Z,0.92
2023-04-03T23:37:37.441Z,0.92
2023-04-03T23:40:04.251Z,0.92
2023-04-03T23:42:30.746Z,0.93
2023-04-03T23:44:57.275Z,0.95
2023-04-03T23:47:23.815Z,0.97
2023-04-03T23:49:50.388Z,0.97
2023-04-03T23:52:16.917Z,0.93
2023-04-03T23:54:43.446Z,0.90
2023-04-03T23:57:09.940Z,0.84
2023-04-03T23:59:36.516Z,0.81
